Time;durP1;ratioP1;P1;durP2;ratioP2;P2;SDS_P1;SDS_P2;PMS_P1;PMS_P2;Temp;Humidity;BMP_temperature;BMP_pressure;BME280_temperature;BME280_humidity;BME280_pressure;Samples;Min_cycle;Max_cycle;Signal;HPM_P1;HPM_P2
2023/01/21 00:01:15;;;;;;;;;;;2.80;99.90;;;;;;5074830;28;1068;-74
2023/01/21 00:03:43;;;;;;;;;;;2.70;99.90;;;;;;5081380;28;1899;-73
2023/01/21 00:06:13;;;;;;;;;;;2.90;99.90;;;;;;5064994;28;1331;-72
2023/01/21 00:08:42;;;;;;;;;;;2.90;99.90;;;;;;5069810;28;1517;-73
2023/01/21 00:11:13;;;;;;;;;;;2.70;99.90;;;;;;5081558;28;1083;-73
2023/01/21 00:13:42;;;;;;;;;;;2.70;99.90;;;;;;5076269;28;1608;-73
2023/01/21 00:16:11;;;;;;;;;;;2.90;99.90;;;;;;5062870;28;1319;-71
2023/01/21 00:18:39;;;;;;;;;;;2.60;99.90;;;;;;5063137;28;1910;-71
2023/01/21 00:21:08;;;;;;;;;;;2.60;99.90;;;;;;5064387;28;1555;-72
2023/01/21 00:23:36;;;;;;;;;;;2.30;99.90;;;;;;5065941;28;1156;-73
2023/01/21 00:26:06;;;;;;;;;;;2.40;99.90;;;;;;5061876;28;1310;-73
2023/01/21 00:28:34;;;;;;;;;;;2.30;99.90;;;;;;5062055;28;1001;-73
2023/01/21 00:31:03;;;;;;;;;;;2.40;99.90;;;;;;5059181;28;1136;-72
2023/01/21 00:33:33;;;;;;;;;;;2.30;99.90;;;;;;5064905;28;1669;-73
2023/01/21 00:36:02;;;;;;;;;;;2.00;99.90;;;;;;5062958;28;1315;-73
2023/01/21 00:38:29;;;;;;;;;;;2.00;99.90;;;;;;5060726;28;2292;-73
2023/01/21 00:41:00;;;;;;;;;;;2.00;99.90;;;;;;5062250;28;1057;-73
2023/01/21 00:43:28;;;;;;;;;;;2.00;99.90;;;;;;5061645;28;1258;-72
2023/01/21 00:45:56;;;;;;;;;;;2.10;99.90;;;;;;5061491;28;1373;-73
2023/01/21 00:48:23;;;;;;;;;;;2.30;99.90;;;;;;5066535;28;1016;-73
2023/01/21 00:50:54;;;;;;;;;;;2.40;99.90;;;;;;5063886;28;1097;-72
2023/01/21 00:53:23;;;;;;;;;;;2.50;99.90;;;;;;5063583;28;1006;-73
2023/01/21 00:55:50;;;;;;;;;;;2.50;99.90;;;;;;5064749;28;1248;-73
2023/01/21 00:58:18;;;;;;;;;;;2.70;99.90;;;;;;5062055;28;1995;-73
2023/01/21 01:00:46;;;;;;;;;;;2.70;99.90;;;;;;5061005;28;1137;-72
2023/01/21 01:03:14;;;;;;;;;;;2.60;99.90;;;;;;5065901;28;1569;-74
2023/01/21 01:05:41;;;;;;;;;;;2.90;99.90;;;;;;5073498;28;1239;-74
2023/01/21 01:08:10;;;;;;;;;;;3.10;99.90;;;;;;5062593;28;1174;-71
2023/01/21 01:10:38;;;;;;;;;;;3.00;99.90;;;;;;5063531;28;1037;-73
2023/01/21 01:13:07;;;;;;;;;;;3.00;99.90;;;;;;5065878;28;1558;-73
2023/01/21 01:15:34;;;;;;;;;;;3.10;99.90;;;;;;5065436;28;1330;-73
2023/01/21 01:18:02;;;;;;;;;;;3.00;99.90;;;;;;5064045;28;1977;-72
2023/01/21 01:20:30;;;;;;;;;;;2.90;99.90;;;;;;5067254;28;1048;-72
2023/01/21 01:22:57;;;;;;;;;;;2.90;99.90;;;;;;5062372;28;1097;-71
2023/01/21 01:25:26;;;;;;;;;;;3.00;99.90;;;;;;5062890;28;1327;-72
2023/01/21 01:27:54;;;;;;;;;;;2.80;99.90;;;;;;5064907;28;1001;-72
2023/01/21 01:30:22;;;;;;;;;;;2.80;99.90;;;;;;5057275;28;1072;-72
2023/01/21 01:32:49;;;;;;;;;;;3.00;99.90;;;;;;5061258;28;1020;-74
2023/01/21 01:35:17;;;;;;;;;;;2.70;99.90;;;;;;5067949;28;1252;-73
2023/01/21 01:37:44;;;;;;;;;;;2.90;99.90;;;;;;5064198;28;1989;-73
2023/01/21 01:40:13;;;;;;;;;;;2.80;99.90;;;;;;5060636;28;1109;-73
2023/01/21 01:42:42;;;;;;;;;;;2.70;99.90;;;;;;5065943;28;1017;-73
2023/01/21 01:45:16;;;;;;;;;;;2.70;99.90;;;;;;5068684;28;1382;-73
2023/01/21 01:47:46;;;;;;;;;;;2.80;99.90;;;;;;5064930;28;1123;-73
2023/01/21 01:50:17;;;;;;;;;;;2.90;99.90;;;;;;5066827;28;1161;-73
2023/01/21 01:52:45;;;;;;;;;;;3.10;99.90;;;;;;5068987;28;1583;-73
2023/01/21 01:55:14;;;;;;;;;;;2.90;99.90;;;;;;5066712;28;1355;-72
2023/01/21 01:57:45;;;;;;;;;;;2.70;99.90;;;;;;5063132;28;1228;-72
2023/01/21 02:00:13;;;;;;;;;;;2.70;99.90;;;;;;5064434;28;1987;-72
2023/01/21 02:03:43;;;;;;;;;;;2.70;99.90;;;;;;5064243;28;2231;-72
2023/01/21 02:05:31;;;;;;;;;;;2.70;99.90;;;;;;5067983;28;1345;-73
2023/01/21 02:07:58;;;;;;;;;;;2.80;99.90;;;;;;5067382;28;1060;-73
2023/01/21 02:10:26;;;;;;;;;;;2.70;99.90;;;;;;5066270;28;1076;-73
2023/01/21 02:12:55;;;;;;;;;;;2.90;99.90;;;;;;5067030;28;1205;-73
2023/01/21 02:15:23;;;;;;;;;;;2.80;99.90;;;;;;5066139;28;1351;-73
2023/01/21 02:17:58;;;;;;;;;;;3.00;99.90;;;;;;5068597;28;1112;-73
2023/01/21 02:20:43;;;;;;;;;;;3.00;99.90;;;;;;5066860;28;1977;-74
2023/01/21 02:23:14;;;;;;;;;;;2.70;99.90;;;;;;5067723;28;1057;-73
2023/01/21 02:25:58;;;;;;;;;;;2.80;99.90;;;;;;5067294;28;1459;-72
2023/01/21 02:28:43;;;;;;;;;;;2.80;99.90;;;;;;5071569;28;1037;-73
2023/01/21 02:31:25;;;;;;;;;;;2.80;99.90;;;;;;5071939;28;1100;-73
2023/01/21 02:33:56;;;;;;;;;;;2.90;99.90;;;;;;5065858;28;1080;-73
2023/01/21 02:36:31;;;;;;;;;;;2.80;99.90;;;;;;5065174;28;1322;-75
2023/01/21 02:39:03;;;;;;;;;;;3.00;99.90;;;;;;5066747;28;1977;-76
2023/01/21 02:41:36;;;;;;;;;;;3.00;99.90;;;;;;5068935;28;1073;-74
2023/01/21 02:44:08;;;;;;;;;;;3.10;99.90;;;;;;5063542;28;1052;-74
2023/01/21 02:46:39;;;;;;;;;;;2.90;99.90;;;;;;5067510;28;1697;-75
2023/01/21 02:49:11;;;;;;;;;;;2.90;99.90;;;;;;5063519;28;1138;-74
2023/01/21 02:51:39;;;;;;;;;;;3.20;99.90;;;;;;5061721;28;1049;-75
2023/01/21 02:54:13;;;;;;;;;;;3.00;99.90;;;;;;5065799;28;1557;-75
2023/01/21 02:56:41;;;;;;;;;;;3.00;99.90;;;;;;5064895;28;1013;-74
2023/01/21 02:59:09;;;;;;;;;;;3.10;99.90;;;;;;5063987;28;1906;-73
2023/01/21 03:01:42;;;;;;;;;;;3.10;99.90;;;;;;5066211;28;1405;-73
2023/01/21 03:04:19;;;;;;;;;;;3.10;99.90;;;;;;5066475;28;966;-73
2023/01/21 03:06:52;;;;;;;;;;;3.20;99.90;;;;;;5061433;28;1064;-73
2023/01/21 03:09:21;;;;;;;;;;;3.30;99.90;;;;;;5062987;28;1092;-75
2023/01/21 03:11:55;;;;;;;;;;;3.20;99.90;;;;;;5064673;28;1211;-73
2023/01/21 03:17:17;;;;;;;;;;;2.90;99.90;;;;;;5062968;28;1037;-71
2023/01/21 03:19:49;;;;;;;;;;;2.90;99.90;;;;;;5064952;28;1993;-72
2023/01/21 03:22:18;;;;;;;;;;;3.00;99.90;;;;;;5064774;28;1036;-72
2023/01/21 03:24:48;;;;;;;;;;;3.00;99.90;;;;;;5069675;28;1385;-72
2023/01/21 03:27:18;;;;;;;;;;;3.20;99.90;;;;;;5070873;28;1033;-71
2023/01/21 03:29:47;;;;;;;;;;;3.20;99.90;;;;;;5064739;28;1104;-71
2023/01/21 03:32:16;;;;;;;;;;;3.10;99.90;;;;;;5063799;28;1068;-71
2023/01/21 03:34:47;;;;;;;;;;;3.10;99.90;;;;;;5065715;28;1457;-72
2023/01/21 03:37:19;;;;;;;;;;;3.10;99.90;;;;;;5065068;28;1112;-72
2023/01/21 03:39:52;;;;;;;;;;;3.10;99.90;;;;;;5062566;28;1883;-73
2023/01/21 03:42:21;;;;;;;;;;;3.10;99.90;;;;;;5062058;28;1048;-73
2023/01/21 03:44:49;;;;;;;;;;;3.10;99.90;;;;;;5065737;28;1294;-73
2023/01/21 03:47:20;;;;;;;;;;;3.30;99.90;;;;;;5067832;28;1170;-73
2023/01/21 03:49:52;;;;;;;;;;;2.90;99.90;;;;;;5065412;28;1009;-72
2023/01/21 03:52:22;;;;;;;;;;;3.00;99.90;;;;;;5068130;28;1286;-72
2023/01/21 03:54:50;;;;;;;;;;;3.00;99.90;;;;;;5065628;28;1259;-71
2023/01/21 03:57:17;;;;;;;;;;;3.00;99.90;;;;;;5063900;28;1112;-72
2023/01/21 03:59:45;;;;;;;;;;;3.00;99.90;;;;;;5064107;28;1996;-73
2023/01/21 04:02:17;;;;;;;;;;;3.00;99.90;;;;;;5066365;28;1164;-73
2023/01/21 04:04:45;;;;;;;;;;;3.10;99.90;;;;;;5064811;28;1349;-72
2023/01/21 04:07:14;;;;;;;;;;;3.10;99.90;;;;;;5067618;28;1033;-73
2023/01/21 04:09:42;;;;;;;;;;;3.20;99.90;;;;;;5067100;28;1059;-74
2023/01/21 04:12:10;;;;;;;;;;;3.30;99.90;;;;;;5060222;28;1547;-72
2023/01/21 04:14:38;;;;;;;;;;;3.20;99.90;;;;;;5064909;28;1346;-72
2023/01/21 04:17:05;;;;;;;;;;;3.30;99.90;;;;;;5065669;28;1160;-74
2023/01/21 04:19:33;;;;;;;;;;;3.30;99.90;;;;;;5067721;28;1906;-73
2023/01/21 04:22:01;;;;;;;;;;;3.40;99.90;;;;;;5065900;28;1005;-72
2023/01/21 04:24:28;;;;;;;;;;;3.30;99.90;;;;;;5061897;28;1330;-72
2023/01/21 04:26:57;;;;;;;;;;;3.20;99.90;;;;;;5065173;28;1037;-72
2023/01/21 04:29:25;;;;;;;;;;;3.20;99.90;;;;;;5063366;28;1062;-73
2023/01/21 04:31:52;;;;;;;;;;;3.20;99.90;;;;;;5064767;28;1005;-72
2023/01/21 04:34:20;;;;;;;;;;;3.30;99.90;;;;;;5064992;28;1401;-72
2023/01/21 04:36:48;;;;;;;;;;;3.10;99.90;;;;;;5062384;28;1164;-72
2023/01/21 04:39:15;;;;;;;;;;;3.20;99.90;;;;;;5063768;28;1093;-72
2023/01/21 04:41:43;;;;;;;;;;;3.20;99.90;;;;;;5063606;28;1156;-71
2023/01/21 04:44:12;;;;;;;;;;;3.30;99.90;;;;;;5060677;28;1625;-71
2023/01/21 04:46:40;;;;;;;;;;;3.30;99.90;;;;;;5059184;28;1394;-71
2023/01/21 04:49:07;;;;;;;;;;;3.20;99.90;;;;;;5062352;28;1137;-73
2023/01/21 04:51:35;;;;;;;;;;;3.00;99.90;;;;;;5064388;28;1119;-73
2023/01/21 04:54:02;;;;;;;;;;;3.10;99.90;;;;;;5062531;28;1052;-72
2023/01/21 04:56:30;;;;;;;;;;;3.10;99.90;;;;;;5064151;28;1299;-72
2023/01/21 04:58:58;;;;;;;;;;;3.10;99.90;;;;;;5061250;28;1102;-72
2023/01/21 05:01:26;;;;;;;;;;;3.10;99.90;;;;;;5065941;28;1917;-71
2023/01/21 05:03:54;;;;;;;;;;;3.10;99.90;;;;;;5068180;28;1290;-72
2023/01/21 05:06:22;;;;;;;;;;;3.00;99.90;;;;;;5062256;28;1301;-72
2023/01/21 05:08:49;;;;;;;;;;;3.00;99.90;;;;;;5064896;28;1119;-73
2023/01/21 05:11:17;;;;;;;;;;;3.00;99.90;;;;;;5065877;28;1037;-72
2023/01/21 05:13:45;;;;;;;;;;;3.10;99.90;;;;;;5073380;28;1428;-72
2023/01/21 05:16:13;;;;;;;;;;;3.00;99.90;;;;;;5085817;28;1323;-71
2023/01/21 05:18:44;;;;;;;;;;;3.30;99.90;;;;;;5084798;28;1029;-71
2023/01/21 05:21:13;;;;;;;;;;;3.10;99.90;;;;;;5085550;28;1887;-71
2023/01/21 05:23:40;;;;;;;;;;;3.10;99.90;;;;;;5081112;28;1096;-71
2023/01/21 05:26:08;;;;;;;;;;;2.90;99.90;;;;;;5086010;28;1177;-70
2023/01/21 05:28:36;;;;;;;;;;;3.00;99.90;;;;;;5083169;28;1064;-72
2023/01/21 05:31:05;;;;;;;;;;;3.00;99.90;;;;;;5090139;28;1006;-72
2023/01/21 05:33:33;;;;;;;;;;;2.90;99.90;;;;;;5082350;28;1085;-72
2023/01/21 05:36:04;;;;;;;;;;;2.80;99.90;;;;;;5080616;28;1549;-73
2023/01/21 05:38:31;;;;;;;;;;;2.80;99.90;;;;;;5084694;28;1091;-73
2023/01/21 05:40:59;;;;;;;;;;;2.90;99.90;;;;;;5086000;28;1969;-73
2023/01/21 05:43:27;;;;;;;;;;;3.00;99.90;;;;;;5072749;28;1207;-73
2023/01/21 05:45:55;;;;;;;;;;;3.10;99.90;;;;;;5064307;28;1972;-73
2023/01/21 05:48:23;;;;;;;;;;;3.00;99.90;;;;;;5067506;28;1119;-74
2023/01/21 05:50:50;;;;;;;;;;;3.00;99.90;;;;;;5064487;28;1204;-72
2023/01/21 05:53:19;;;;;;;;;;;2.90;99.90;;;;;;5062655;28;1444;-71
2023/01/21 05:55:50;;;;;;;;;;;2.90;99.90;;;;;;5061071;28;1303;-76
2023/01/21 05:58:18;;;;;;;;;;;2.80;99.90;;;;;;5063687;28;1504;-76
2023/01/21 06:00:47;;;;;;;;;;;2.70;99.90;;;;;;5066808;28;1914;-76
2023/01/21 06:03:15;;;;;;;;;;;2.80;99.90;;;;;;5060050;28;1571;-75
2023/01/21 06:05:42;;;;;;;;;;;2.90;99.90;;;;;;5065381;28;1350;-76
2023/01/21 06:08:10;;;;;;;;;;;2.70;99.90;;;;;;5063636;28;854;-75
2023/01/21 06:10:39;;;;;;;;;;;2.60;99.90;;;;;;5059566;28;1005;-75
2023/01/21 06:13:07;;;;;;;;;;;2.70;99.90;;;;;;5063484;28;1120;-76
2023/01/21 06:15:34;;;;;;;;;;;2.60;99.90;;;;;;5062475;28;1343;-75
2023/01/21 06:18:02;;;;;;;;;;;2.70;99.90;;;;;;5064651;28;1251;-74
2023/01/21 06:20:30;;;;;;;;;;;2.60;99.90;;;;;;5062050;28;1895;-74
2023/01/21 06:22:58;;;;;;;;;;;2.50;99.90;;;;;;5061589;28;1373;-75
2023/01/21 06:25:25;;;;;;;;;;;2.60;99.90;;;;;;5069398;28;1262;-74
2023/01/21 06:27:55;;;;;;;;;;;2.50;99.90;;;;;;5062844;28;1514;-75
2023/01/21 06:30:23;;;;;;;;;;;2.40;99.90;;;;;;5059505;28;1088;-75
2023/01/21 06:32:50;;;;;;;;;;;2.50;99.90;;;;;;5064796;28;2153;-72
2023/01/21 06:35:18;;;;;;;;;;;2.20;99.90;;;;;;5056575;28;2038;-72
2023/01/21 06:37:46;;;;;;;;;;;2.60;99.90;;;;;;5057346;28;2091;-71
2023/01/21 06:40:14;;;;;;;;;;;2.70;99.90;;;;;;5061188;28;2261;-72
2023/01/21 06:42:45;;;;;;;;;;;2.70;99.90;;;;;;5062105;28;1910;-72
2023/01/21 06:45:14;;;;;;;;;;;2.70;99.90;;;;;;5063480;28;2364;-73
2023/01/21 06:47:42;;;;;;;;;;;2.70;99.90;;;;;;5064830;28;2213;-72
2023/01/21 06:50:10;;;;;;;;;;;2.90;99.90;;;;;;5065754;28;1037;-72
2023/01/21 06:52:39;;;;;;;;;;;2.90;99.90;;;;;;5064875;28;1181;-72
2023/01/21 06:55:07;;;;;;;;;;;2.80;99.90;;;;;;5067281;28;1312;-72
2023/01/21 06:57:35;;;;;;;;;;;2.60;99.90;;;;;;5065563;28;1153;-72
2023/01/21 07:00:03;;;;;;;;;;;2.80;99.90;;;;;;5064392;28;1093;-72
2023/01/21 07:02:33;;;;;;;;;;;2.90;99.90;;;;;;5063341;28;1997;-72
2023/01/21 07:05:01;;;;;;;;;;;3.10;99.90;;;;;;5069257;28;1302;-72
2023/01/21 07:07:30;;;;;;;;;;;3.10;99.90;;;;;;5065602;28;1145;-72
2023/01/21 07:09:58;;;;;;;;;;;3.20;99.90;;;;;;5059235;28;2273;-72
2023/01/21 07:12:25;;;;;;;;;;;3.20;99.90;;;;;;5054475;28;2162;-73
2023/01/21 07:14:53;;;;;;;;;;;2.90;99.90;;;;;;5053157;28;2320;-73
2023/01/21 07:17:22;;;;;;;;;;;2.60;99.90;;;;;;5058751;28;2084;-73
2023/01/21 07:19:51;;;;;;;;;;;2.80;99.90;;;;;;5067563;28;1237;-73
2023/01/21 07:22:18;;;;;;;;;;;2.70;99.90;;;;;;5062446;28;2254;-73
2023/01/21 07:24:47;;;;;;;;;;;2.70;99.90;;;;;;5069172;28;2217;-73
2023/01/21 07:27:15;;;;;;;;;;;3.00;99.90;;;;;;5078057;28;2150;-73
2023/01/21 07:29:43;;;;;;;;;;;2.90;99.90;;;;;;5064882;28;2290;-73
2023/01/21 07:32:11;;;;;;;;;;;3.00;99.90;;;;;;5062206;28;1111;-73
2023/01/21 07:34:38;;;;;;;;;;;3.00;99.90;;;;;;5063270;28;2157;-73
2023/01/21 07:37:07;;;;;;;;;;;2.80;99.90;;;;;;5063096;28;1684;-73
2023/01/21 07:39:35;;;;;;;;;;;2.90;99.90;;;;;;5061086;28;1932;-73
2023/01/21 07:42:03;;;;;;;;;;;2.90;99.90;;;;;;5063181;28;1902;-73
2023/01/21 07:44:30;;;;;;;;;;;2.80;99.90;;;;;;5066304;28;2102;-73
2023/01/21 07:46:58;;;;;;;;;;;2.80;99.90;;;;;;5064626;28;1087;-73
2023/01/21 07:49:26;;;;;;;;;;;2.80;99.90;;;;;;5064256;28;1316;-73
2023/01/21 07:51:56;;;;;;;;;;;3.10;99.90;;;;;;5064488;28;1076;-72
2023/01/21 07:54:25;;;;;;;;;;;2.90;99.90;;;;;;5062618;28;1709;-74
2023/01/21 07:56:52;;;;;;;;;;;2.80;99.90;;;;;;5059201;28;2094;-73
2023/01/21 07:59:20;;;;;;;;;;;3.00;99.90;;;;;;5063426;28;1013;-73
2023/01/21 08:01:47;;;;;;;;;;;3.00;99.90;;;;;;5060268;28;1918;-73
2023/01/21 08:04:16;;;;;;;;;;;2.80;99.90;;;;;;5065784;28;1562;-73
2023/01/21 08:06:43;;;;;;;;;;;3.00;99.90;;;;;;5065604;28;1074;-73
2023/01/21 08:09:11;;;;;;;;;;;2.90;99.90;;;;;;5064545;28;2233;-72
2023/01/21 08:11:42;;;;;;;;;;;2.90;99.90;;;;;;5073599;28;1091;-74
2023/01/21 08:14:10;;;;;;;;;;;2.80;99.90;;;;;;5067711;28;1016;-73
2023/01/21 08:16:38;;;;;;;;;;;2.80;99.90;;;;;;5066993;28;1460;-73
2023/01/21 08:19:05;;;;;;;;;;;2.70;99.90;;;;;;5064000;28;1021;-72
2023/01/21 08:21:33;;;;;;;;;;;3.10;99.90;;;;;;5060159;28;1942;-73
2023/01/21 08:24:01;;;;;;;;;;;2.80;99.90;;;;;;5062789;28;1634;-72
2023/01/21 08:26:28;;;;;;;;;;;2.90;99.90;;;;;;5061808;28;1303;-73
2023/01/21 08:28:59;;;;;;;;;;;3.00;99.90;;;;;;5062337;28;1185;-72
2023/01/21 08:31:26;;;;;;;;;;;3.10;99.90;;;;;;5067693;28;1122;-73
2023/01/21 08:33:54;;;;;;;;;;;3.40;99.90;;;;;;5058673;28;2114;-73
2023/01/21 08:36:23;;;;;;;;;;;3.40;99.90;;;;;;5060001;28;1357;-74
2023/01/21 08:38:52;;;;;;;;;;;3.00;99.90;;;;;;5059590;28;1065;-72
2023/01/21 08:41:20;;;;;;;;;;;2.90;99.90;;;;;;5061862;28;1242;-74
2023/01/21 08:43:47;;;;;;;;;;;3.20;99.90;;;;;;5062233;28;1971;-73
2023/01/21 08:46:17;;;;;;;;;;;3.60;99.90;;;;;;5063712;28;1292;-75
2023/01/21 08:48:44;;;;;;;;;;;3.50;99.90;;;;;;5064245;28;1122;-75
2023/01/21 08:51:12;;;;;;;;;;;3.30;99.90;;;;;;5062552;28;1072;-74
2023/01/21 08:53:39;;;;;;;;;;;3.00;99.90;;;;;;5064030;28;930;-75
2023/01/21 08:56:07;;;;;;;;;;;3.00;99.90;;;;;;5060779;28;2349;-72
2023/01/21 08:58:35;;;;;;;;;;;3.10;99.90;;;;;;5062568;28;1076;-73
2023/01/21 09:01:06;;;;;;;;;;;3.10;99.90;;;;;;5065760;28;1024;-75
2023/01/21 09:03:35;;;;;;;;;;;3.20;99.90;;;;;;5064131;28;1909;-74
2023/01/21 09:06:04;;;;;;;;;;;3.00;99.90;;;;;;5063121;28;2300;-74
2023/01/21 09:08:31;;;;;;;;;;;2.90;99.90;;;;;;5057417;28;2246;-74
2023/01/21 09:11:03;;;;;;;;;;;2.80;99.90;;;;;;5058776;28;2177;-73
2023/01/21 09:13:32;;;;;;;;;;;3.00;99.90;;;;;;5061763;28;1105;-74
2023/01/21 09:16:00;;;;;;;;;;;3.00;99.90;;;;;;5060579;28;1286;-74
2023/01/21 09:18:28;;;;;;;;;;;3.20;99.90;;;;;;5060765;28;1736;-73
2023/01/21 09:21:01;;;;;;;;;;;3.30;99.90;;;;;;5064147;28;1621;-74
2023/01/21 09:23:31;;;;;;;;;;;2.90;99.90;;;;;;5059501;28;1902;-74
2023/01/21 09:26:01;;;;;;;;;;;3.00;99.90;;;;;;5059245;28;1412;-75
2023/01/21 09:28:29;;;;;;;;;;;3.30;99.90;;;;;;5063175;28;1558;-74
2023/01/21 09:30:57;;;;;;;;;;;3.30;99.90;;;;;;5059616;28;1710;-76
2023/01/21 09:33:26;;;;;;;;;;;3.20;99.90;;;;;;5060280;28;1258;-74
2023/01/21 09:35:56;;;;;;;;;;;3.10;99.90;;;;;;5062630;28;1417;-74
2023/01/21 09:38:41;;;;;;;;;;;3.10;99.90;;;;;;5059464;28;2230;-75
2023/01/21 09:41:20;;;;;;;;;;;3.20;99.90;;;;;;5060828;28;1068;-74
2023/01/21 09:43:51;;;;;;;;;;;3.40;99.90;;;;;;5059594;28;2401;-76
2023/01/21 09:46:23;;;;;;;;;;;3.20;99.90;;;;;;5064875;28;1330;-75
2023/01/21 09:48:51;;;;;;;;;;;3.30;99.90;;;;;;5062068;28;1060;-76
2023/01/21 09:51:22;;;;;;;;;;;3.40;99.90;;;;;;5063764;28;993;-76
2023/01/21 09:53:54;;;;;;;;;;;3.20;99.90;;;;;;5062567;28;1060;-76
2023/01/21 09:56:25;;;;;;;;;;;3.10;99.90;;;;;;5061376;28;2576;-76
2023/01/21 09:58:56;;;;;;;;;;;3.20;99.90;;;;;;5063868;28;1379;-76
2023/01/21 10:01:26;;;;;;;;;;;3.10;99.90;;;;;;5063583;28;1240;-76
2023/01/21 10:03:55;;;;;;;;;;;3.20;99.90;;;;;;5069781;28;1983;-75
2023/01/21 10:06:38;;;;;;;;;;;3.40;99.90;;;;;;5068154;28;1507;-75
2023/01/21 10:09:27;;;;;;;;;;;3.60;99.90;;;;;;5068300;28;1328;-76
2023/01/21 10:12:14;;;;;;;;;;;3.50;99.90;;;;;;5068956;28;1069;-75
2023/01/21 10:15:06;;;;;;;;;;;3.30;99.90;;;;;;5066207;28;1276;-75
2023/01/21 10:17:41;;;;;;;;;;;3.30;99.90;;;;;;5072762;28;993;-75
2023/01/21 10:20:13;;;;;;;;;;;3.50;99.90;;;;;;5066154;28;1104;-73
2023/01/21 10:22:44;;;;;;;;;;;3.40;99.90;;;;;;5063009;28;1902;-75
2023/01/21 10:25:15;;;;;;;;;;;3.50;99.90;;;;;;5061601;28;1641;-74
2023/01/21 10:27:45;;;;;;;;;;;3.50;99.90;;;;;;5065687;28;1809;-72
2023/01/21 10:30:20;;;;;;;;;;;3.60;99.90;;;;;;5066566;28;1256;-72
2023/01/21 10:32:50;;;;;;;;;;;3.80;99.90;;;;;;5068662;28;1155;-73
2023/01/21 10:35:18;;;;;;;;;;;3.80;99.90;;;;;;5068407;28;1335;-72
2023/01/21 10:37:48;;;;;;;;;;;3.60;99.90;;;;;;5066438;28;1179;-72
2023/01/21 10:40:41;;;;;;;;;;;3.70;99.90;;;;;;5068146;28;990;-72
2023/01/21 10:43:10;;;;;;;;;;;3.90;99.90;;;;;;5063395;28;1921;-71
2023/01/21 10:45:42;;;;;;;;;;;3.50;99.90;;;;;;5067385;28;1343;-73
2023/01/21 10:48:15;;;;;;;;;;;3.70;99.90;;;;;;5065531;28;930;-72
2023/01/21 10:50:47;;;;;;;;;;;3.80;99.90;;;;;;5066019;28;1112;-72
2023/01/21 10:53:18;;;;;;;;;;;4.00;99.90;;;;;;5065644;28;1014;-71
2023/01/21 10:55:54;;;;;;;;;;;4.10;99.90;;;;;;5063418;28;1381;-71
2023/01/21 10:58:27;;;;;;;;;;;3.90;99.90;;;;;;5067227;28;1273;-73
2023/01/21 11:00:56;;;;;;;;;;;3.90;99.90;;;;;;5067369;28;1093;-72
2023/01/21 11:03:29;;;;;;;;;;;4.00;99.90;;;;;;5066238;28;1987;-73
2023/01/21 11:05:58;;;;;;;;;;;4.20;99.90;;;;;;5066788;28;1391;-72
2023/01/21 11:08:26;;;;;;;;;;;4.20;99.90;;;;;;5066972;28;1461;-73
2023/01/21 11:10:55;;;;;;;;;;;4.30;99.90;;;;;;5069979;28;1107;-73
2023/01/21 11:13:23;;;;;;;;;;;4.40;99.90;;;;;;5067567;28;1044;-76
2023/01/21 11:15:53;;;;;;;;;;;4.40;99.90;;;;;;5069081;28;1307;-75
2023/01/21 11:18:25;;;;;;;;;;;4.20;99.90;;;;;;5067712;28;1548;-76
2023/01/21 11:20:55;;;;;;;;;;;4.40;99.90;;;;;;5067821;28;1655;-72
2023/01/21 11:23:25;;;;;;;;;;;4.50;99.90;;;;;;5065643;28;1985;-74
2023/01/21 11:26:00;;;;;;;;;;;4.60;99.90;;;;;;5065895;28;1316;-75
2023/01/21 11:28:29;;;;;;;;;;;4.40;99.90;;;;;;5063823;28;1533;-73
2023/01/21 11:31:11;;;;;;;;;;;4.40;99.90;;;;;;5061565;28;1673;-74
2023/01/21 11:33:39;;;;;;;;;;;4.40;99.90;;;;;;5062315;28;1055;-74
2023/01/21 11:36:14;;;;;;;;;;;4.30;99.90;;;;;;5067237;28;1337;-74
2023/01/21 11:38:42;;;;;;;;;;;4.40;99.90;;;;;;5065332;28;1082;-73
2023/01/21 11:41:15;;;;;;;;;;;4.70;99.90;;;;;;5063611;28;1131;-73
2023/01/21 11:43:44;;;;;;;;;;;4.60;99.90;;;;;;5065667;28;1914;-75
2023/01/21 11:46:26;;;;;;;;;;;4.50;99.90;;;;;;5064180;28;1439;-74
2023/01/21 11:48:54;;;;;;;;;;;4.50;99.90;;;;;;5062796;28;1470;-76
2023/01/21 11:51:22;;;;;;;;;;;4.70;99.90;;;;;;5063211;28;1161;-75
2023/01/21 11:54:06;;;;;;;;;;;4.80;99.90;;;;;;5066313;28;1149;-72
2023/01/21 11:56:34;;;;;;;;;;;4.50;99.90;;;;;;5063990;28;1373;-73
2023/01/21 11:59:10;;;;;;;;;;;4.60;99.90;;;;;;5061310;28;1266;-73
2023/01/21 12:01:39;;;;;;;;;;;4.60;99.90;;;;;;5062186;28;1220;-73
2023/01/21 12:04:13;;;;;;;;;;;4.80;99.90;;;;;;5065749;28;1894;-74
2023/01/21 12:06:44;;;;;;;;;;;4.60;99.90;;;;;;5063543;28;1090;-73
2023/01/21 12:09:16;;;;;;;;;;;4.60;99.90;;;;;;5065204;28;1062;-72
2023/01/21 12:11:47;;;;;;;;;;;4.40;99.90;;;;;;5066038;28;1501;-75
2023/01/21 12:14:22;;;;;;;;;;;4.50;99.90;;;;;;5070676;28;1112;-73
2023/01/21 12:16:58;;;;;;;;;;;4.70;99.90;;;;;;5070812;28;1624;-74
2023/01/21 12:19:33;;;;;;;;;;;4.40;99.90;;;;;;5063806;28;1471;-75
2023/01/21 12:22:08;;;;;;;;;;;4.40;99.90;;;;;;5064180;28;1486;-73
2023/01/21 12:24:44;;;;;;;;;;;4.40;99.90;;;;;;5059477;28;1986;-73
2023/01/21 12:27:19;;;;;;;;;;;4.30;99.90;;;;;;5063588;28;1146;-73
2023/01/21 12:29:52;;;;;;;;;;;4.20;99.90;;;;;;5064142;28;1110;-73
2023/01/21 12:32:23;;;;;;;;;;;4.00;99.90;;;;;;5061247;28;1410;-74
2023/01/21 12:34:55;;;;;;;;;;;4.00;99.90;;;;;;5061902;28;1400;-72
2023/01/21 12:37:26;;;;;;;;;;;4.10;99.90;;;;;;5063428;28;1274;-73
2023/01/21 12:39:56;;;;;;;;;;;4.20;99.90;;;;;;5065200;28;1088;-74
2023/01/21 12:42:28;;;;;;;;;;;4.20;99.90;;;;;;5062047;28;1220;-72
2023/01/21 12:44:59;;;;;;;;;;;4.40;99.90;;;;;;5058696;28;1910;-73
2023/01/21 12:47:31;;;;;;;;;;;4.30;99.90;;;;;;5062994;28;1178;-73
2023/01/21 12:50:05;;;;;;;;;;;4.10;99.90;;;;;;5063915;28;1392;-73
2023/01/21 12:52:37;;;;;;;;;;;4.20;99.90;;;;;;5065740;28;1082;-75
2023/01/21 12:55:07;;;;;;;;;;;4.20;99.90;;;;;;5069065;28;1392;-75
2023/01/21 12:57:38;;;;;;;;;;;4.00;99.90;;;;;;5065832;28;1107;-75
2023/01/21 13:00:13;;;;;;;;;;;4.10;99.90;;;;;;5061694;28;1150;-75
2023/01/21 13:02:45;;;;;;;;;;;4.10;99.90;;;;;;5061133;28;1809;-73
2023/01/21 13:05:15;;;;;;;;;;;4.40;99.90;;;;;;5058327;28;2000;-73
2023/01/21 13:07:45;;;;;;;;;;;4.30;99.90;;;;;;5062495;28;1309;-75
2023/01/21 13:10:16;;;;;;;;;;;4.30;99.90;;;;;;5066325;28;1354;-74
2023/01/21 13:12:47;;;;;;;;;;;4.40;99.90;;;;;;5061914;28;1234;-72
2023/01/21 13:15:16;;;;;;;;;;;4.40;99.90;;;;;;5060278;28;1371;-73
2023/01/21 13:17:48;;;;;;;;;;;4.50;99.90;;;;;;5060481;28;1100;-73
2023/01/21 13:20:16;;;;;;;;;;;4.40;99.90;;;;;;5062098;28;1182;-72
2023/01/21 13:22:46;;;;;;;;;;;4.40;99.90;;;;;;5060025;28;1140;-73
2023/01/21 13:25:28;;;;;;;;;;;4.40;99.90;;;;;;5061310;28;1968;-73
2023/01/21 13:28:00;;;;;;;;;;;4.40;99.90;;;;;;5062063;28;1039;-73
2023/01/21 13:30:30;;;;;;;;;;;4.40;99.90;;;;;;5060252;28;1024;-73
2023/01/21 13:33:10;;;;;;;;;;;4.40;99.90;;;;;;5060020;28;1638;-72
2023/01/21 13:35:41;;;;;;;;;;;4.40;99.90;;;;;;5062325;28;1291;-72
2023/01/21 13:38:13;;;;;;;;;;;4.40;99.90;;;;;;5065548;28;2025;-73
2023/01/21 13:40:43;;;;;;;;;;;4.30;99.90;;;;;;5065099;28;1116;-72
2023/01/21 13:43:17;;;;;;;;;;;4.70;99.90;;;;;;5067236;28;1417;-74
2023/01/21 13:45:50;;;;;;;;;;;4.50;99.90;;;;;;5062950;28;1910;-73
2023/01/21 13:48:28;;;;;;;;;;;4.50;99.90;;;;;;5065409;28;1791;-75
2023/01/21 13:51:04;;;;;;;;;;;4.70;99.90;;;;;;5063923;28;1727;-73
2023/01/21 13:53:38;;;;;;;;;;;4.60;99.90;;;;;;5068324;28;1491;-75
2023/01/21 13:56:16;;;;;;;;;;;4.50;99.90;;;;;;5065381;28;1487;-74
2023/01/21 13:58:47;;;;;;;;;;;4.30;99.90;;;;;;5064109;28;1081;-74
2023/01/21 14:01:19;;;;;;;;;;;4.20;99.90;;;;;;5062444;28;1474;-74
2023/01/21 14:03:50;;;;;;;;;;;4.20;99.90;;;;;;5067471;28;1805;-73
2023/01/21 14:06:23;;;;;;;;;;;4.30;99.90;;;;;;5066848;28;2262;-73
2023/01/21 14:08:53;;;;;;;;;;;4.20;99.90;;;;;;5061539;28;1645;-74
2023/01/21 14:11:25;;;;;;;;;;;4.30;99.90;;;;;;5063035;28;1712;-76
2023/01/21 14:14:02;;;;;;;;;;;4.30;99.90;;;;;;5065314;28;1380;-75
2023/01/21 14:16:36;;;;;;;;;;;4.30;99.90;;;;;;5064213;28;1474;-74
2023/01/21 14:19:13;;;;;;;;;;;4.20;99.90;;;;;;5067522;28;1077;-74
2023/01/21 14:21:53;;;;;;;;;;;4.20;99.90;;;;;;5065544;28;989;-74
2023/01/21 14:24:28;;;;;;;;;;;4.20;99.90;;;;;;5068848;28;1637;-74
2023/01/21 14:27:03;;;;;;;;;;;4.20;99.90;;;;;;5065345;28;1963;-74
2023/01/21 14:29:34;;;;;;;;;;;4.10;99.90;;;;;;5068686;28;1081;-73
2023/01/21 14:32:04;;;;;;;;;;;4.40;99.90;;;;;;5063897;28;1415;-74
2023/01/21 14:34:40;;;;;;;;;;;4.40;99.90;;;;;;5065297;28;1256;-73
2023/01/21 14:37:10;;;;;;;;;;;4.30;99.90;;;;;;5070144;28;1094;-74
2023/01/21 14:39:43;;;;;;;;;;;4.30;99.90;;;;;;5062685;28;1592;-74
2023/01/21 14:42:12;;;;;;;;;;;4.40;99.90;;;;;;5063575;28;1513;-74
2023/01/21 14:44:44;;;;;;;;;;;4.30;99.90;;;;;;5067256;28;1368;-74
2023/01/21 14:47:13;;;;;;;;;;;4.30;99.90;;;;;;5065949;28;1104;-74
2023/01/21 14:49:42;;;;;;;;;;;4.10;99.90;;;;;;5062173;28;1032;-74
2023/01/21 14:52:14;;;;;;;;;;;4.00;99.90;;;;;;5067508;28;1005;-74
2023/01/21 14:54:43;;;;;;;;;;;3.90;99.90;;;;;;5065934;28;1337;-75
2023/01/21 14:57:23;;;;;;;;;;;4.00;99.90;;;;;;5067000;28;1038;-76
2023/01/21 14:59:52;;;;;;;;;;;3.90;99.90;;;;;;5070540;28;1085;-73
2023/01/21 15:02:23;;;;;;;;;;;3.80;99.90;;;;;;5068585;28;1288;-74
2023/01/21 15:04:52;;;;;;;;;;;3.90;99.90;;;;;;5067117;28;1257;-74